createdAt,value
2018-10-19T00:00:28.986Z,12.80
2018-10-19T00:01:28.962Z,12.60
2018-10-19T00:02:28.954Z,12.50
2018-10-19T00:03:28.941Z,13.90
2018-10-19T00:04:28.945Z,13.30
2018-10-19T00:05:28.919Z,14.20
2018-10-19T00:06:28.908Z,12.80
2018-10-19T00:07:28.901Z,14.20
2018-10-19T00:08:28.886Z,12.00
2018-10-19T00:09:28.898Z,13.20
2018-10-19T00:10:28.879Z,13.70
2018-10-19T00:11:28.852Z,12.20
2018-10-19T00:12:28.843Z,11.70
2018-10-19T00:13:28.831Z,13.30
2018-10-19T00:14:28.847Z,12.10
2018-10-19T00:15:28.809Z,14.90
2018-10-19T00:16:28.797Z,12.20
2018-10-19T00:17:28.785Z,11.50
2018-10-19T00:18:28.778Z,12.20
2018-10-19T00:19:28.763Z,12.20
2018-10-19T00:20:28.764Z,12.00
2018-10-19T00:21:28.740Z,11.50
2018-10-19T00:22:28.733Z,11.70
2018-10-19T00:23:28.718Z,11.30
2018-10-19T00:24:28.709Z,11.50
2018-10-19T00:25:28.728Z,11.70
2018-10-19T00:26:28.684Z,11.70
2018-10-19T00:27:28.674Z,10.80
2018-10-19T00:28:28.662Z,10.20
2018-10-19T00:29:28.652Z,11.00
2018-10-19T00:30:28.641Z,10.60
2018-10-19T00:31:28.644Z,10.90
2018-10-19T00:32:28.619Z,11.80
2018-10-19T00:33:28.606Z,10.40
2018-10-19T00:34:28.596Z,9.90
2018-10-19T00:35:28.586Z,10.60
2018-10-19T00:36:28.590Z,11.40
2018-10-19T00:37:28.563Z,11.40
2018-10-19T00:38:28.552Z,10.10
2018-10-19T00:39:28.543Z,10.50
2018-10-19T00:40:28.534Z,10.40
2018-10-19T00:41:28.519Z,9.10
2018-10-19T00:42:28.520Z,10.60
2018-10-19T00:43:28.495Z,9.20
2018-10-19T00:44:28.484Z,9.50
2018-10-19T00:45:28.475Z,9.90
2018-10-19T00:46:28.466Z,10.60
2018-10-19T00:47:28.876Z,9.70
2018-10-19T00:48:28.444Z,9.90
2018-10-19T00:49:28.430Z,9.30
2018-10-19T00:50:28.419Z,9.30
2018-10-19T00:51:28.412Z,9.40
2018-10-19T00:52:28.410Z,10.50
2018-10-19T00:53:28.393Z,9.50
2018-10-19T00:54:28.377Z,9.80
2018-10-19T00:55:28.367Z,8.80
2018-10-19T00:56:28.353Z,9.10
2018-10-19T00:57:28.355Z,9.20
2018-10-19T00:58:28.331Z,8.10
2018-10-19T00:59:28.321Z,8.20
2018-10-19T01:00:28.309Z,8.40
2018-10-19T01:01:28.300Z,9.50
2018-10-19T01:02:28.299Z,9.20
2018-10-19T01:03:28.287Z,9.10
2018-10-19T01:04:28.263Z,8.30
2018-10-19T01:05:28.252Z,8.60
2018-10-19T01:06:28.241Z,8.30
2018-10-19T01:07:28.244Z,9.00
2018-10-19T01:08:28.231Z,8.20
2018-10-19T01:09:28.209Z,9.20
2018-10-19T01:10:28.197Z,8.20
2018-10-19T01:11:28.187Z,8.50
2018-10-19T01:12:28.174Z,8.90
2018-10-19T01:13:28.177Z,8.20
2018-10-19T01:14:28.152Z,7.60
2018-10-19T01:15:28.142Z,7.80
2018-10-19T01:16:28.131Z,7.90
2018-10-19T01:17:28.119Z,7.90
2018-10-19T01:18:28.119Z,7.60
2018-10-19T01:19:28.097Z,8.50
2018-10-19T01:20:28.086Z,8.70
2018-10-19T01:21:28.076Z,7.40
2018-10-19T01:22:28.063Z,7.30
2018-10-19T01:23:28.072Z,7.50
2018-10-19T01:24:28.052Z,8.30
2018-10-19T01:25:28.029Z,8.00
2018-10-19T01:26:28.022Z,7.20
2018-10-19T01:27:28.007Z,9.70
2018-10-19T01:28:27.998Z,8.60
2018-10-19T01:29:28.009Z,9.10
2018-10-19T01:30:27.971Z,7.60
2018-10-19T01:31:27.965Z,7.30
2018-10-19T01:32:27.950Z,8.50
2018-10-19T01:33:27.947Z,8.50
2018-10-19T01:34:27.948Z,7.70
2018-10-19T01:35:27.917Z,7.60
2018-10-19T01:36:27.907Z,7.50
2018-10-19T01:37:27.894Z,6.90
2018-10-19T01:38:27.882Z,7.60
2018-10-19T01:39:27.876Z,7.80
2018-10-19T01:40:27.877Z,7.50
2018-10-19T01:41:27.853Z,7.80
2018-10-19T01:42:27.838Z,7.60
2018-10-19T01:43:27.827Z,8.00
2018-10-19T01:44:27.832Z,7.00
2018-10-19T01:45:27.817Z,6.90
2018-10-19T01:46:27.793Z,6.80
2018-10-19T01:47:27.784Z,8.20
2018-10-19T01:48:27.771Z,8.00
2018-10-19T01:49:27.762Z,7.40
2018-10-19T01:50:27.770Z,8.40
2018-10-19T01:51:27.738Z,7.00
2018-10-19T01:52:27.726Z,7.50
2018-10-19T01:53:27.720Z,6.60
2018-10-19T01:54:27.705Z,8.40
2018-10-19T01:55:27.707Z,8.40
2018-10-19T01:56:27.691Z,6.60
2018-10-19T01:57:27.670Z,6.50
2018-10-19T01:58:27.665Z,6.70
2018-10-19T01:59:27.649Z,7.20
2018-10-19T02:00:27.660Z,8.60
2018-10-19T02:01:27.625Z,6.70
2018-10-19T02:02:49.675Z,7.20
2018-10-19T02:03:27.602Z,7.30
2018-10-19T02:04:27.593Z,6.70
2018-10-19T02:05:27.582Z,6.20
2018-10-19T02:06:27.585Z,8.10
2018-10-19T02:07:27.559Z,6.20
2018-10-19T02:08:27.549Z,7.00
2018-10-19T02:09:27.537Z,6.20
2018-10-19T02:10:27.529Z,6.60
2018-10-19T02:11:27.528Z,6.50
2018-10-19T02:12:27.517Z,6.60
2018-10-19T02:13:27.493Z,6.90
2018-10-19T02:14:27.487Z,7.20
2018-10-19T02:15:27.477Z,6.00
2018-10-19T02:16:27.470Z,6.30
2018-10-19T02:17:27.447Z,5.80
2018-10-19T02:18:27.439Z,6.50
2018-10-19T02:19:27.426Z,5.70
2018-10-19T02:20:27.418Z,6.90
2018-10-19T02:21:27.428Z,5.80
2018-10-19T02:22:27.394Z,6.30
2018-10-19T02:23:27.382Z,6.30
2018-10-19T02:24:27.376Z,5.90
2018-10-19T02:25:27.369Z,6.00
2018-10-19T02:26:27.349Z,6.30
2018-10-19T02:27:27.353Z,6.30
2018-10-19T02:28:27.325Z,7.20
2018-10-19T02:29:27.331Z,5.30
2018-10-19T02:30:27.305Z,7.20
2018-10-19T02:31:27.293Z,6.80
2018-10-19T02:32:27.342Z,7.30
2018-10-19T02:33:27.270Z,6.60
2018-10-19T02:34:27.260Z,6.50
2018-10-19T02:35:27.247Z,5.30
2018-10-19T02:36:27.240Z,7.10
2018-10-19T02:37:27.229Z,6.50
2018-10-19T02:38:27.226Z,6.30
2018-10-19T02:39:27.204Z,7.40
2018-10-19T02:40:27.194Z,5.90
2018-10-19T02:41:27.194Z,6.30
2018-10-19T02:42:27.169Z,7.20
2018-10-19T02:43:27.158Z,6.30
2018-10-19T02:44:27.146Z,6.30
2018-10-19T02:45:27.146Z,6.50
2018-10-19T02:46:27.139Z,5.90
2018-10-19T02:47:27.115Z,5.10
2018-10-19T02:48:27.115Z,6.90
2018-10-19T02:49:27.093Z,5.60
2018-10-19T02:50:27.082Z,5.40
2018-10-19T02:51:27.070Z,5.20
2018-10-19T02:52:27.063Z,5.40
2018-10-19T02:53:27.078Z,5.70
2018-10-19T02:54:27.037Z,5.00
2018-10-19T02:55:27.027Z,6.50
2018-10-19T02:56:27.017Z,5.10
2018-10-19T02:57:27.007Z,7.50
2018-10-19T02:58:26.993Z,5.80
2018-10-19T02:59:26.995Z,6.50
2018-10-19T03:00:26.971Z,5.30
2018-10-19T03:01:26.961Z,5.10
2018-10-19T03:02:26.953Z,8.10
2018-10-19T03:03:26.945Z,5.70
2018-10-19T03:04:26.943Z,5.90
2018-10-19T03:05:26.920Z,6.10
2018-10-19T03:06:26.903Z,6.90
2018-10-19T03:07:26.894Z,5.70
2018-10-19T03:08:26.884Z,6.00
2018-10-19T03:09:26.897Z,6.60
2018-10-19T03:10:26.859Z,5.40
2018-10-19T03:11:26.923Z,4.80
2018-10-19T03:12:26.837Z,5.00
2018-10-19T03:13:26.826Z,6.20
2018-10-19T03:14:26.829Z,6.40
2018-10-19T03:15:26.805Z,7.00
2018-10-19T03:16:26.799Z,6.90
2018-10-19T03:17:26.783Z,5.80
2018-10-19T03:18:26.771Z,4.80
2018-10-19T03:19:26.772Z,5.80
2018-10-19T03:20:26.759Z,5.90
2018-10-19T03:21:26.743Z,7.10
2018-10-19T03:22:26.728Z,6.50
2018-10-19T03:23:26.715Z,6.70
2018-10-19T03:24:26.715Z,5.60
2018-10-19T03:25:26.699Z,5.40
2018-10-19T03:26:26.685Z,5.90
2018-10-19T03:27:26.673Z,5.30
2018-10-19T03:28:26.663Z,5.70
2018-10-19T03:29:26.658Z,7.20
2018-10-19T03:30:26.649Z,6.60
2018-10-19T03:31:26.627Z,7.30
2018-10-19T03:32:26.614Z,6.40
2018-10-19T03:33:26.604Z,6.00
2018-10-19T03:34:26.593Z,5.90
2018-10-19T03:35:26.596Z,6.30
2018-10-19T03:36:26.568Z,6.10
2018-10-19T03:37:26.559Z,6.20
2018-10-19T03:38:26.550Z,5.60
2018-10-19T03:39:26.538Z,6.00
2018-10-19T03:40:26.538Z,4.90
2018-10-19T03:41:26.526Z,5.40
2018-10-19T03:42:26.505Z,5.60
2018-10-19T03:43:26.492Z,6.10
2018-10-19T03:44:26.484Z,6.10
2018-10-19T03:45:26.489Z,6.90
2018-10-19T03:46:26.458Z,5.30
2018-10-19T03:47:26.449Z,6.00
2018-10-19T03:48:26.437Z,5.40
2018-10-19T03:49:26.425Z,6.60
2018-10-19T03:50:26.412Z,6.10
2018-10-19T03:51:26.417Z,6.50
2018-10-19T03:52:26.392Z,6.50
2018-10-19T03:53:26.380Z,5.60
2018-10-19T03:54:26.371Z,5.30
2018-10-19T03:55:26.359Z,6.40
2018-10-19T03:56:26.361Z,4.90
2018-10-19T03:57:26.338Z,7.30
2018-10-19T03:58:26.324Z,6.30
2018-10-19T03:59:26.315Z,6.00
2018-10-19T04:00:26.300Z,5.20
2018-10-19T04:01:26.302Z,7.10
2018-10-19T04:02:26.283Z,6.40
2018-10-19T04:03:26.288Z,5.50
2018-10-19T04:04:26.258Z,5.10
2018-10-19T04:05:26.246Z,6.80
2018-10-19T04:06:26.250Z,5.80
2018-10-19T04:07:26.223Z,5.60
2018-10-19T04:08:26.215Z,6.70
2018-10-19T04:09:26.203Z,6.10
2018-10-19T04:10:26.190Z,5.80
2018-10-19T04:11:26.192Z,6.30
2018-10-19T04:12:26.181Z,7.10
2018-10-19T04:13:26.159Z,6.40
2018-10-19T04:14:26.146Z,5.40
2018-10-19T04:15:26.134Z,5.90
2018-10-19T04:16:26.122Z,6.50
2018-10-19T04:17:26.152Z,5.30
2018-10-19T04:18:26.101Z,6.20
2018-10-19T04:19:26.088Z,5.10
2018-10-19T04:20:26.080Z,6.90
2018-10-19T04:21:26.081Z,5.80
2018-10-19T04:22:26.056Z,6.10
2018-10-19T04:23:26.063Z,6.10
2018-10-19T04:24:26.041Z,5.80
2018-10-19T04:25:26.023Z,6.50
2018-10-19T04:26:26.011Z,5.80
2018-10-19T04:27:26.076Z,6.90
2018-10-19T04:28:25.996Z,6.90
2018-10-19T04:29:25.979Z,7.40
2018-10-19T04:30:25.971Z,6.50
2018-10-19T04:31:25.960Z,5.90
2018-10-19T04:32:25.956Z,6.70
2018-10-19T04:33:25.933Z,6.20
2018-10-19T04:34:25.923Z,5.60
2018-10-19T04:35:25.911Z,6.30
2018-10-19T04:36:25.899Z,6.00
2018-10-19T04:37:25.907Z,6.20
2018-10-19T04:38:25.877Z,5.80
2018-10-19T04:39:25.871Z,5.80
2018-10-19T04:40:25.855Z,6.50
2018-10-19T04:41:25.943Z,7.80
2018-10-19T04:42:25.959Z,7.40
2018-10-19T04:43:25.837Z,7.10
2018-10-19T04:44:25.811Z,6.80
2018-10-19T04:45:25.804Z,6.90
2018-10-19T04:46:25.790Z,7.80
2018-10-19T04:47:25.792Z,7.60
2018-10-19T04:48:25.765Z,6.50
2018-10-19T04:49:25.766Z,5.90
2018-10-19T04:50:25.742Z,6.00
2018-10-19T04:51:25.734Z,7.80
2018-10-19T04:52:25.735Z,6.00
2018-10-19T04:53:25.711Z,6.30
2018-10-19T04:54:25.700Z,6.80
2018-10-19T04:55:25.702Z,6.60
2018-10-19T04:56:25.679Z,6.40
2018-10-19T04:57:25.667Z,7.00
2018-10-19T04:58:25.687Z,7.00
2018-10-19T04:59:25.644Z,6.70
2018-10-19T05:00:25.639Z,6.80
2018-10-19T05:01:25.621Z,7.40
2018-10-19T05:02:25.618Z,5.80
2018-10-19T05:03:25.604Z,6.70
2018-10-19T05:04:25.625Z,7.00
2018-10-19T05:05:25.688Z,7.40
2018-10-19T05:06:25.669Z,6.40
2018-10-19T05:07:25.556Z,7.80
2018-10-19T05:08:25.621Z,7.10
2018-10-19T05:09:25.535Z,7.80
2018-10-19T05:10:25.521Z,7.10
2018-10-19T05:11:25.510Z,5.80
2018-10-19T05:12:25.591Z,6.30
2018-10-19T05:13:25.503Z,6.50
2018-10-19T05:14:25.490Z,7.70
2018-10-19T05:15:25.471Z,7.50
2018-10-19T05:16:25.454Z,7.20
2018-10-19T05:17:25.443Z,6.00
2018-10-19T05:18:25.432Z,6.50
2018-10-19T05:19:25.432Z,6.20
2018-10-19T05:20:25.429Z,6.60
2018-10-19T05:21:25.399Z,6.80
2018-10-19T05:22:25.393Z,6.60
2018-10-19T05:23:25.378Z,6.10
2018-10-19T05:24:25.422Z,7.50
2018-10-19T05:25:25.354Z,7.60
2018-10-19T05:26:25.342Z,7.30
2018-10-19T05:27:25.330Z,7.00
2018-10-19T05:28:25.321Z,8.10
2018-10-19T05:29:25.329Z,7.20
2018-10-19T05:30:25.299Z,6.30
2018-10-19T05:31:25.287Z,6.70
2018-10-19T05:32:25.274Z,7.20
2018-10-19T05:33:25.266Z,7.60
2018-10-19T05:34:25.252Z,7.00
2018-10-19T05:35:25.255Z,7.40
2018-10-19T05:36:25.232Z,7.60
2018-10-19T05:37:25.220Z,8.10
2018-10-19T05:38:25.210Z,7.10
2018-10-19T05:39:25.199Z,6.30
2018-10-19T05:40:25.203Z,7.70
2018-10-19T05:41:25.187Z,7.00
2018-10-19T05:42:25.165Z,7.00
2018-10-19T05:43:25.167Z,8.20
2018-10-19T05:44:25.142Z,6.00
2018-10-19T05:45:25.132Z,7.50
2018-10-19T05:46:25.132Z,7.50
2018-10-19T05:47:25.108Z,7.10
2018-10-19T05:48:25.096Z,6.00
2018-10-19T05:49:25.089Z,9.20
2018-10-19T05:50:25.079Z,7.10
2018-10-19T05:51:25.079Z,9.60
2018-10-19T05:52:25.052Z,6.90
2018-10-19T05:53:25.043Z,5.90
2018-10-19T05:54:25.033Z,6.50
2018-10-19T05:55:25.031Z,6.40
2018-10-19T05:56:25.021Z,9.20
2018-10-19T05:57:24.998Z,6.10
2018-10-19T05:58:24.989Z,6.00
2018-10-19T05:59:24.976Z,6.50
2018-10-19T06:00:24.967Z,7.50
2018-10-19T06:01:24.967Z,6.00
2018-10-19T06:02:25.128Z,6.70
2018-10-19T06:03:24.963Z,6.40
2018-10-19T06:04:24.924Z,7.50
2018-10-19T06:05:24.907Z,6.50
2018-10-19T06:06:24.901Z,6.90
2018-10-19T06:07:24.954Z,6.90
2018-10-19T06:08:24.956Z,7.40
2018-10-19T06:09:24.862Z,8.30
2018-10-19T06:10:24.851Z,7.40
2018-10-19T06:11:24.842Z,7.60
2018-10-19T06:12:24.841Z,5.80
2018-10-19T06:13:25.283Z,6.60
2018-10-19T06:14:24.835Z,6.60
2018-10-19T06:15:24.831Z,7.10
2018-10-19T06:16:24.787Z,8.90
2018-10-19T06:17:24.776Z,6.80
2018-10-19T06:18:25.241Z,6.00
2018-10-19T06:19:24.792Z,6.10
2018-10-19T06:20:24.763Z,6.30
2018-10-19T06:21:24.786Z,7.50
2018-10-19T06:22:24.721Z,6.40
2018-10-19T06:23:24.721Z,6.20
2018-10-19T06:24:24.696Z,8.20
2018-10-19T06:25:24.685Z,6.40
2018-10-19T06:26:24.775Z,6.00
2018-10-19T06:27:24.666Z,7.50
2018-10-19T06:28:24.672Z,6.40
2018-10-19T06:29:24.642Z,7.10
2018-10-19T06:30:24.635Z,6.50
2018-10-19T06:31:24.618Z,7.70
2018-10-19T06:32:24.608Z,6.70
2018-10-19T06:33:24.622Z,8.80
2018-10-19T06:34:24.582Z,5.70
2018-10-19T06:35:24.575Z,6.60
2018-10-19T06:36:24.563Z,7.60
2018-10-19T06:37:24.553Z,6.10
2018-10-19T06:38:24.541Z,9.20
2018-10-19T06:39:24.541Z,8.60
2018-10-19T06:40:24.517Z,6.90
2018-10-19T06:41:24.509Z,6.50
2018-10-19T06:42:24.494Z,7.40
2018-10-19T06:43:24.484Z,7.60
2018-10-19T06:44:24.485Z,6.60
2018-10-19T06:45:24.463Z,7.30
2018-10-19T06:46:24.450Z,6.70
2018-10-19T06:47:24.492Z,7.50
2018-10-19T06:48:24.427Z,6.60
2018-10-19T06:49:24.437Z,9.10
2018-10-19T06:50:24.406Z,7.40
2018-10-19T06:51:24.399Z,6.20
2018-10-19T06:52:24.383Z,7.10
2018-10-19T06:53:24.373Z,6.30
2018-10-19T06:54:24.362Z,6.80
2018-10-19T06:55:24.367Z,7.70
2018-10-19T06:56:24.341Z,8.30
2018-10-19T06:57:24.339Z,7.50
2018-10-19T06:58:24.319Z,8.60
2018-10-19T06:59:24.370Z,8.40
2018-10-19T07:00:24.308Z,7.30
2018-10-19T07:01:24.288Z,7.00
2018-10-19T07:02:24.275Z,7.70
2018-10-19T07:03:24.270Z,6.80
2018-10-19T07:04:24.263Z,7.50
2018-10-19T07:05:24.252Z,6.80
2018-10-19T07:06:24.228Z,6.60
2018-10-19T07:07:24.220Z,8.90
2018-10-19T07:08:24.255Z,8.60
2018-10-19T07:09:24.196Z,6.50
2018-10-19T07:10:24.195Z,7.20
2018-10-19T07:11:24.185Z,7.60
2018-10-19T07:12:24.165Z,8.10
2018-10-19T07:13:24.150Z,7.40
2018-10-19T07:14:24.146Z,7.50
2018-10-19T07:15:24.146Z,7.60
2018-10-19T07:16:24.117Z,7.50
2018-10-19T07:17:24.107Z,8.70
2018-10-19T07:18:24.098Z,7.90
2018-10-19T07:19:24.086Z,8.40
2018-10-19T07:20:24.117Z,7.60
2018-10-19T07:21:24.063Z,8.20
2018-10-19T07:22:24.052Z,8.50
2018-10-19T07:23:24.040Z,8.00
2018-10-19T07:24:24.031Z,8.00
2018-10-19T07:25:24.017Z,8.30
2018-10-19T07:26:24.238Z,6.90
2018-10-19T07:27:23.996Z,9.50
2018-10-19T07:28:23.987Z,9.70
2018-10-19T07:29:23.984Z,7.90
2018-10-19T07:30:23.964Z,7.20
2018-10-19T07:31:23.965Z,8.50
2018-10-19T07:32:23.941Z,7.90
2018-10-19T07:33:23.932Z,7.60
2018-10-19T07:34:23.922Z,7.60
2018-10-19T07:35:23.909Z,7.40
2018-10-19T07:36:23.965Z,7.20
2018-10-19T07:37:23.900Z,9.30
2018-10-19T07:38:23.877Z,7.10
2018-10-19T07:39:23.867Z,6.80
2018-10-19T07:40:23.863Z,8.50
2018-10-19T07:41:23.863Z,8.90
2018-10-19T07:42:23.949Z,8.10
2018-10-19T07:43:23.822Z,7.10
2018-10-19T07:44:23.813Z,6.90
2018-10-19T07:45:23.798Z,6.80
2018-10-19T07:46:23.787Z,7.90
2018-10-19T07:47:23.978Z,7.30
2018-10-19T07:48:23.826Z,7.80
2018-10-19T07:49:23.754Z,7.50
2018-10-19T07:50:23.741Z,10.10
2018-10-19T07:51:23.731Z,8.40
2018-10-19T07:52:23.737Z,7.90
2018-10-19T07:53:23.711Z,8.80
2018-10-19T07:54:23.716Z,7.40
2018-10-19T07:55:23.687Z,7.30
2018-10-19T07:56:23.675Z,7.90
2018-10-19T07:57:23.676Z,7.20
2018-10-19T07:58:23.658Z,8.60
2018-10-19T07:59:23.643Z,8.30
2018-10-19T08:00:23.633Z,8.00
2018-10-19T08:01:23.624Z,7.40
2018-10-19T08:02:23.622Z,8.70
2018-10-19T08:03:23.612Z,7.40
2018-10-19T08:04:23.591Z,8.50
2018-10-19T08:05:23.577Z,8.40
2018-10-19T08:06:23.564Z,8.60
2018-10-19T08:07:23.555Z,8.00
2018-10-19T08:08:23.556Z,9.10
2018-10-19T08:09:23.534Z,7.50
2018-10-19T08:10:23.520Z,9.00
2018-10-19T08:11:23.582Z,9.00
2018-10-19T08:12:23.499Z,10.00
2018-10-19T08:13:23.504Z,8.30
2018-10-19T08:14:23.488Z,9.60
2018-10-19T08:15:23.467Z,8.40
2018-10-19T08:16:23.456Z,8.60
2018-10-19T08:17:23.451Z,9.20
2018-10-19T08:18:23.447Z,8.40
2018-10-19T08:19:23.440Z,10.10
2018-10-19T08:20:23.410Z,8.80
2018-10-19T08:21:23.406Z,8.30
2018-10-19T08:22:23.390Z,9.20
2018-10-19T08:23:23.384Z,8.20
2018-10-19T08:24:23.369Z,8.70
2018-10-19T08:25:23.370Z,10.40
2018-10-19T08:26:23.346Z,9.30
2018-10-19T08:27:23.408Z,7.90
2018-10-19T08:28:23.326Z,8.70
2018-10-19T08:29:23.333Z,10.50
2018-10-19T08:30:23.301Z,8.60
2018-10-19T08:31:23.289Z,8.80
2018-10-19T08:32:23.278Z,8.20
2018-10-19T08:33:23.273Z,9.20
2018-10-19T08:34:23.268Z,9.20
2018-10-19T08:35:23.247Z,8.20
2018-10-19T08:36:23.234Z,9.80
2018-10-19T08:37:23.233Z,8.20
2018-10-19T08:38:23.212Z,9.20
2018-10-19T08:39:23.214Z,8.20
2018-10-19T08:40:23.206Z,11.60
2018-10-19T08:41:23.193Z,8.60
2018-10-19T08:42:23.170Z,10.60
2018-10-19T08:43:23.158Z,8.80
2018-10-19T08:44:23.172Z,10.70
2018-10-19T08:45:23.148Z,9.40
2018-10-19T08:46:23.125Z,9.20
2018-10-19T08:47:23.113Z,8.50
2018-10-19T08:48:23.102Z,9.40
2018-10-19T08:49:23.092Z,9.70
2018-10-19T08:50:23.093Z,10.50
2018-10-19T08:51:23.070Z,9.70
2018-10-19T08:52:23.057Z,11.10
2018-10-19T08:53:23.050Z,9.20
2018-10-19T08:54:23.035Z,9.70
2018-10-19T08:55:23.056Z,9.70
2018-10-19T08:56:23.026Z,10.00
2018-10-19T08:57:23.006Z,10.10
2018-10-19T08:58:23.048Z,10.30
2018-10-19T08:59:23.004Z,9.60
2018-10-19T09:00:23.696Z,11.90
2018-10-19T09:01:22.962Z,10.90
2018-10-19T09:02:22.951Z,10.30
2018-10-19T09:03:22.995Z,9.90
2018-10-19T09:04:22.924Z,11.00
2018-10-19T09:05:22.955Z,11.40
2018-10-19T09:06:22.903Z,11.20
2018-10-19T09:07:22.891Z,11.90
2018-10-19T09:08:22.880Z,12.80
2018-10-19T09:09:22.878Z,10.60
2018-10-19T09:10:22.859Z,13.00
2018-10-19T09:11:22.949Z,13.80
2018-10-19T09:12:22.889Z,11.20
2018-10-19T09:13:22.826Z,13.00
2018-10-19T09:14:22.814Z,13.30
2018-10-19T09:15:22.900Z,13.60
2018-10-19T09:16:22.805Z,12.50
2018-10-19T09:17:22.793Z,14.70
2018-10-19T09:18:22.817Z,15.60
2018-10-19T09:19:22.758Z,14.30
2018-10-19T09:20:22.747Z,14.50
2018-10-19T09:21:22.746Z,13.30
2018-10-19T09:22:22.724Z,13.70
2018-10-19T09:23:22.713Z,15.10
2018-10-19T09:24:22.704Z,16.00
2018-10-19T09:25:22.694Z,13.90
2018-10-19T09:26:22.695Z,13.90
2018-10-19T09:27:22.670Z,14.30
2018-10-19T09:28:22.662Z,14.00
2018-10-19T09:29:22.670Z,13.80
2018-10-19T09:30:22.634Z,15.80
2018-10-19T09:31:22.637Z,13.20
2018-10-19T09:32:22.612Z,16.80
2018-10-19T09:33:22.620Z,13.70
2018-10-19T09:34:22.588Z,14.20
2018-10-19T09:35:22.630Z,14.90
2018-10-19T09:36:22.772Z,15.10
2018-10-19T09:37:22.573Z,14.60
2018-10-19T09:38:22.547Z,16.30
2018-10-19T09:39:22.535Z,17.70
2018-10-19T09:40:22.599Z,16.50
2018-10-19T09:41:22.562Z,16.60
2018-10-19T09:42:22.515Z,15.50
2018-10-19T09:43:22.489Z,14.30
2018-10-19T09:44:22.487Z,14.60
2018-10-19T09:45:22.472Z,14.10
2018-10-19T09:46:22.458Z,14.50
2018-10-19T09:47:22.512Z,16.40
2018-10-19T09:48:22.437Z,15.70
2018-10-19T09:49:22.420Z,14.60
2018-10-19T09:50:22.414Z,17.00
2018-10-19T09:51:22.406Z,15.90
2018-10-19T09:52:22.390Z,14.90
2018-10-19T09:53:22.411Z,14.50
2018-10-19T09:54:22.369Z,14.50
2018-10-19T09:55:22.470Z,14.90
2018-10-19T09:56:22.346Z,14.40
2018-10-19T09:57:22.347Z,15.00
2018-10-19T09:58:22.334Z,14.70
2018-10-19T09:59:22.312Z,13.40
2018-10-19T10:00:22.310Z,14.80
2018-10-19T10:01:22.289Z,15.40
2018-10-19T10:02:22.280Z,15.80
2018-10-19T10:03:22.283Z,14.30
2018-10-19T10:04:22.260Z,16.60
2018-10-19T10:05:22.247Z,15.80
2018-10-19T10:06:22.233Z,16.00
2018-10-19T10:07:22.221Z,16.10
2018-10-19T10:08:22.224Z,14.90
2018-10-19T10:09:22.200Z,16.50
2018-10-19T10:10:22.186Z,16.50
2018-10-19T10:11:22.184Z,16.20
2018-10-19T10:12:22.169Z,15.30
2018-10-19T10:13:22.169Z,16.50
2018-10-19T10:14:22.146Z,15.30
2018-10-19T10:15:22.296Z,15.80
2018-10-19T10:16:22.127Z,15.90
2018-10-19T10:17:22.109Z,16.30
2018-10-19T10:18:22.118Z,15.90
2018-10-19T10:19:22.091Z,15.50
2018-10-19T10:20:22.078Z,16.00
2018-10-19T10:21:22.064Z,14.60
2018-10-19T10:22:22.062Z,16.50
2018-10-19T10:23:22.043Z,16.30
2018-10-19T10:24:22.048Z,15.30
2018-10-19T10:25:22.075Z,14.00
2018-10-19T10:26:22.011Z,16.00
2018-10-19T10:27:21.998Z,15.20
2018-10-19T10:28:22.001Z,15.70
2018-10-19T10:29:21.986Z,15.00
2018-10-19T10:30:21.964Z,15.00
2018-10-19T10:31:21.953Z,15.10
2018-10-19T10:32:21.961Z,16.00
2018-10-19T10:33:21.931Z,14.80
2018-10-19T10:34:21.931Z,14.10
2018-10-19T10:35:21.910Z,13.60
2018-10-19T10:36:21.899Z,14.70
2018-10-19T10:37:21.894Z,14.90
2018-10-19T10:38:21.876Z,14.00
2018-10-19T10:39:21.974Z,16.00
2018-10-19T10:40:21.858Z,14.90
2018-10-19T10:41:21.844Z,15.00
2018-10-19T10:42:21.832Z,15.00
2018-10-19T10:43:21.824Z,15.40
2018-10-19T10:44:21.822Z,17.00
2018-10-19T10:45:21.853Z,15.50
2018-10-19T10:46:21.788Z,15.50
2018-10-19T10:47:21.795Z,15.50
2018-10-19T10:48:21.765Z,15.00
2018-10-19T10:49:21.768Z,15.40
2018-10-19T10:50:21.754Z,14.90
2018-10-19T10:51:21.732Z,15.20
2018-10-19T10:52:21.722Z,15.70
2018-10-19T10:53:21.711Z,16.20
2018-10-19T10:54:21.704Z,14.90
2018-10-19T10:55:21.713Z,14.90
2018-10-19T10:56:21.678Z,14.50
2018-10-19T10:57:21.669Z,16.00
2018-10-19T10:58:21.654Z,14.70
2018-10-19T10:59:21.642Z,14.80
2018-10-19T11:00:21.644Z,15.20
2018-10-19T11:01:21.621Z,14.60
2018-10-19T11:02:21.609Z,16.90
2018-10-19T11:03:21.602Z,15.40
2018-10-19T11:04:21.590Z,15.40
2018-10-19T11:05:21.593Z,16.40
2018-10-19T11:06:21.570Z,16.90
2018-10-19T11:07:21.699Z,15.90
2018-10-19T11:08:21.545Z,16.30
2018-10-19T11:09:21.537Z,14.90
2018-10-19T11:10:21.532Z,15.20
2018-10-19T11:11:21.508Z,16.60
2018-10-19T11:12:21.510Z,17.00
2018-10-19T11:13:21.490Z,16.10
2018-10-19T11:14:21.477Z,16.30
2018-10-19T11:15:21.468Z,14.90
2018-10-19T11:16:21.470Z,17.10
2018-10-19T11:17:21.446Z,17.70
2018-10-19T11:18:21.433Z,16.60
2018-10-19T11:19:21.420Z,18.30
2018-10-19T11:20:21.410Z,17.00
2018-10-19T11:21:21.414Z,17.80
2018-10-19T11:22:21.390Z,17.50
2018-10-19T11:23:21.390Z,16.00
2018-10-19T11:24:21.365Z,16.30
2018-10-19T11:25:21.355Z,17.80
2018-10-19T11:26:21.363Z,16.90
2018-10-19T11:27:21.349Z,17.10
2018-10-19T11:28:21.331Z,17.80
2018-10-19T11:29:21.308Z,18.40
2018-10-19T11:30:21.298Z,17.80
2018-10-19T11:31:21.285Z,16.30
2018-10-19T11:32:21.286Z,15.90
2018-10-19T11:33:21.265Z,17.20
2018-10-19T11:34:21.251Z,17.50
2018-10-19T11:35:21.240Z,16.60
2018-10-19T11:36:21.229Z,14.90
2018-10-19T11:37:21.241Z,14.20
2018-10-19T11:38:21.210Z,15.10
2018-10-19T11:39:21.210Z,15.00
2018-10-19T11:40:21.190Z,17.00
2018-10-19T11:41:21.176Z,17.80
2018-10-19T11:42:21.165Z,17.30
2018-10-19T11:43:21.154Z,16.80
2018-10-19T11:44:21.154Z,17.10
2018-10-19T11:45:21.130Z,17.70
2018-10-19T11:46:21.119Z,17.60
2018-10-19T11:47:21.109Z,16.00
2018-10-19T11:48:21.098Z,15.40
2018-10-19T11:49:21.157Z,15.50
2018-10-19T11:50:21.073Z,15.00
2018-10-19T11:51:21.069Z,14.60
2018-10-19T11:52:21.053Z,14.40
2018-10-19T11:53:21.063Z,15.20
2018-10-19T11:54:21.032Z,15.10
2018-10-19T11:55:21.025Z,15.50
2018-10-19T11:56:21.010Z,13.90
2018-10-19T11:57:21.003Z,12.80
2018-10-19T11:58:20.988Z,13.30
2018-10-19T11:59:20.988Z,15.10
2018-10-19T12:00:20.966Z,13.60
2018-10-19T12:01:20.953Z,13.10
2018-10-19T12:02:20.941Z,12.50
2018-10-19T12:03:20.936Z,13.80
2018-10-19T12:04:20.932Z,12.70
2018-10-19T12:05:20.906Z,13.30
2018-10-19T12:06:20.896Z,15.50
2018-10-19T12:07:20.885Z,13.90
2018-10-19T12:08:20.878Z,13.90
2018-10-19T12:09:20.881Z,12.90
2018-10-19T12:10:20.864Z,14.40
2018-10-19T12:11:20.840Z,15.40
2018-10-19T12:12:20.828Z,16.20
2018-10-19T12:13:20.820Z,15.20
2018-10-19T12:14:20.814Z,14.60
2018-10-19T12:15:20.809Z,14.20
2018-10-19T12:16:20.919Z,14.70
2018-10-19T12:17:20.773Z,14.70
2018-10-19T12:18:20.763Z,14.10
2018-10-19T12:19:20.775Z,14.90
2018-10-19T12:20:20.754Z,11.90
2018-10-19T12:21:20.789Z,13.00
2018-10-19T12:22:20.720Z,12.40
2018-10-19T12:23:20.706Z,13.00
2018-10-19T12:24:20.695Z,13.70
2018-10-19T12:25:20.724Z,14.70
2018-10-19T12:26:21.085Z,13.30
2018-10-19T12:27:21.240Z,13.20
2018-10-19T12:28:20.861Z,12.70
2018-10-19T12:29:21.238Z,12.00
2018-10-19T12:30:21.239Z,12.10
2018-10-19T12:31:20.629Z,13.00
2018-10-19T12:32:20.606Z,14.00
2018-10-19T12:33:20.611Z,14.00
2018-10-19T12:34:20.585Z,13.60
2018-10-19T12:35:20.604Z,11.80
2018-10-19T12:36:20.575Z,13.50
2018-10-19T12:37:20.552Z,12.40
2018-10-19T12:38:20.540Z,13.30
2018-10-19T12:39:20.527Z,12.40
2018-10-19T12:40:20.522Z,11.60
2018-10-19T12:41:20.518Z,11.40
2018-10-19T12:42:20.497Z,12.50
2018-10-19T12:43:20.485Z,13.00
2018-10-19T12:44:20.477Z,11.80
2018-10-19T12:45:20.462Z,11.70
2018-10-19T12:46:20.464Z,11.50
2018-10-19T12:47:20.449Z,11.50
2018-10-19T12:48:20.428Z,11.50
2018-10-19T12:49:20.419Z,11.70
2018-10-19T12:50:20.407Z,12.30
2018-10-19T12:51:20.413Z,12.00
2018-10-19T12:52:20.382Z,11.70
2018-10-19T12:53:20.372Z,12.10
2018-10-19T12:54:20.396Z,11.20
2018-10-19T12:55:20.356Z,11.20
2018-10-19T12:56:20.341Z,11.30
2018-10-19T12:57:20.386Z,11.20
2018-10-19T12:58:20.317Z,10.80
2018-10-19T12:59:20.304Z,10.70
2018-10-19T13:00:20.296Z,10.30
2018-10-19T13:01:20.288Z,9.80
2018-10-19T13:02:20.282Z,11.20
2018-10-19T13:03:20.376Z,11.60
2018-10-19T13:04:20.250Z,12.20
2018-10-19T13:05:20.241Z,11.40
2018-10-19T13:06:20.231Z,11.30
2018-10-19T13:07:20.253Z,10.60
2018-10-19T13:08:20.206Z,10.40